Chaleur - Miscou: Past 24 Hour Conditions

 

Pool's Island

05:30 AM NDT 22 September 2014
This table is a summary of hourly weather conditions for the past 24 hours.
Date / Time
(NDT)
Wind(knots) Conditions Visibility(km) Pressure(kPa) Air tempC) Relative humidity(%) Dew pointC)
22 September 2014
5:30 SW 14 N/A N/A 101.5 16 89 14
4:30 SW 18 gust 23 N/A N/A 101.5 17 81 14
3:30 SW 12 gust 20 N/A N/A 101.5 17 84 15
2:30 SW 14 N/A N/A 101.5 16 89 14
1:30 SW 15 N/A N/A 101.5 17 86 15
0:30 SW 14 gust 19 N/A N/A 101.5 16 84 14
21 September 2014
23:30 SW 18 gust 24 N/A N/A 101.5 16 81 13
22:30 SW 17 N/A N/A 101.5 16 82 13
21:30 SW 16 gust 22 N/A N/A 101.5 16 78 12
20:30 SW 11 gust 17 N/A N/A 101.5 16 73 12
19:30 WSW 18 gust 23 N/A N/A 101.4 18 62 11
18:30 SW 19 gust 27 N/A N/A 101.4 19 58 10
17:30 SW 26 gust 32 N/A N/A 101.3 20 53 10
16:30 SW 17 gust 26 N/A N/A 101.3 20 62 13
15:30 SW 24 gust 31 N/A N/A 101.3 20 64 13
14:30 WSW 21 gust 28 N/A N/A 101.3 19 69 13
13:30 WSW 19 gust 28 N/A N/A 101.4 18 71 12
12:30 WSW 20 gust 30 N/A N/A 101.3 17 72 12
11:30 WSW 20 gust 28 N/A N/A 101.4 16 75 12
10:30 WSW 14 N/A N/A 101.4 15 78 11
9:30 SW 17 gust 23 N/A N/A 101.3 14 82 11
8:30 WSW 13 N/A N/A 101.3 13 84 11
7:30 WSW 12 gust 17 N/A N/A 101.3 13 84 10
6:30 SW 14 N/A N/A 101.3 13 84 10
5:30 WSW 15 gust 20 N/A N/A 101.2 13 83 10
 
Map of Atlantic - Newfoundland marine weather areas Southwestern Grand Banks - 44138 Banquereau - 44139 Tail of the Bank - 44140 Nickerson Bank - 44251 Northeast Burgeo Bank - 44255 Blanc-Sablon Airport Cap Whittle Chevery Natashquan Airport Heath Point Miscou Island Grand Étang Ingonish Beach North Mountain St.Paul Island J.A. Douglas McCurdy Sydney Airport Charlottetown Airport East Point North Cape Argentia Bonavista Burgeo Cape Race Corner Brook Daniel's Harbour Englee Ferolle Point La Scie Port aux Basques Rocky Harbour Sagona Island St. Anthony Airport St. John's Int'l Airport St. Lawrence Stephenville Airport Twillingate Winterland Wreckhouse Cartwright Airport Mary's Harbour Grates Cove Pool's Island Marticot Island Long Pond Îles de la Madeleine Airport
Legend: buoyBuoy land stationLand Station